Terminal Aerodrome Forecast
Issued by NWS

Home | Current Version | Previous Version | Text Only | Print | Product List | Glossary On
Versions: 1 2 3 4 5 6 7 8
000
FTUS42 KMHX 282300
TAFOAJ
TAF
KOAJ 282321Z 2900/2924 VRB05KT P6SM SCT040 BKN120
      TEMPO 2903/2906 SCT008 BKN020
     FM290600 04003KT 4SM -RA BR OVC005
     FM291300 03006KT 3SM -RA BR OVC004
      AMD LTD TO CLD VIS AND WIND=

USA.gov is the U.S. government's official web portal to all federal, state and local government web resources and services.